• Join FlightAware (Why Join?)
  • Login
  • US Flag 
02:19AM EST


 

Airport Tracker/Info


-or-


 

Live Flight TrackerFlight Track Log ✈ N820NC ✈ 22-Aug-2014 ✈ KHOT - KBHM

Flight Track Log - Related Links

Times and Time Zones

All times are in EDT time to prevent confusion due to time zone crossing. See the N820NC flight status page for this flight to view local times or setup timezone preferences in your user account.

Time Position Orientation Groundspeed Altitude Reporting Facility
EDT Latitude Longitude Course Direction KTS MPH feet Rate Location/Type
05:42PM 34.4142 -92.9772 103° East 262 302 5,900  Level Memphis Center
05:43PM 34.3967 -92.8869 103° East 266 306 8,500 2,371 Climbing Memphis Center
05:44PM 34.3800 -92.7950 102° East 272 313 10,800 2,064 Climbing Memphis Center
05:45PM 34.3608 -92.7000 104° East 280 322 12,800 2,208 Climbing Memphis Center
05:46PM 34.3466 -92.4697 107° East  Level FlightAware Approximate
05:46PM 34.3381 -92.5781 103° East 298 343 15,400  Level Memphis Center
05:47PM 34.3186 -92.4753 103° East 311 358 17,600 1,935 Climbing Memphis Center
05:48PM 34.3000 -92.3756 103° East 310 357 19,400 1,597 Climbing Memphis Center
05:49PM 34.2797 -92.2775 104° East 305 351 20,900 1,452 Climbing Memphis Center
05:50PM 34.2603 -92.1758 103° East 307 353 22,400 1,452 Climbing Memphis Center
05:51PM 34.2400 -92.0708 103° East 314 361 23,900 1,694 Climbing Memphis Center
05:52PM 34.2153 -91.9475 104° East 315 362 25,900 1,776 Climbing Memphis Center
05:53PM 34.1950 -91.8456 103° East 315 362 27,600 1,488 Climbing Memphis Center
05:54PM 34.1747 -91.7447 104° East 314 361 29,000 1,306 Climbing Memphis Center
05:55PM 34.1531 -91.6269 103° East 315 362 30,300 968 Climbing Memphis Center
05:56PM 34.1297 -91.5161 104° East 333 383 31,000 339 Climbing Memphis Center
05:57PM 34.1175 -91.3936 97° East 363 418 31,000  Level Memphis Center
05:58PM 34.1050 -91.2656 97° East 380 437 31,000  Level Memphis Center
05:59PM 34.0908 -91.1347 97° East 389 448 31,000  Level Memphis Center
06:00PM 34.0772 -91.0019 97° East 396 456 31,000  Level Memphis Center
06:01PM 34.0606 -90.8447 97° East 396 456 31,000  Level Memphis Center
06:02PM 34.0475 -90.7122 97° East 396 456 31,000  Level Memphis Center
06:03PM 34.0322 -90.5808 98° East 398 458 31,000  Level Memphis Center
06:04PM 34.0158 -90.4519 99° East 397 457 31,000  Level Memphis Center
06:05PM 33.9992 -90.3197 99° East 397 457 31,000  Level Memphis Center
06:07PM 33.9789 -90.1625 99° East 397 457 31,000  Level Memphis Center
06:08PM 33.9619 -90.0317 99° East 397 457 31,000 -48 Level Memphis Center
06:09PM 33.9375 -89.9022 103° East 399 459 30,900 -339 Descending Memphis Center
06:10PM 33.8989 -89.7811 111° Southeast 398 458 30,300 -532 Descending Memphis Center
06:11PM 33.8625 -89.6636 110° East 386 444 29,800 -629 Descending Memphis Center
06:12PM 33.8144 -89.5194 112° Southeast 385 443 29,000 -629 Descending Memphis Center
06:13PM 33.7800 -89.4108 110° East 394 453 28,500 -629 Descending Memphis Center
06:14PM 33.7314 -89.2586 111° Southeast 403 464 27,700 -672 Descending Memphis Center
06:15PM 33.6917 -89.1389 112° Southeast 397 457 27,100 -615 Descending Memphis Center
06:15PM 33.6783 -89.1022 114° Southeast 389 448 26,900 -545 Descending Memphis Center
06:15PM 33.6681 -89.0722 112° Southeast 387 445 26,800 -511 Descending Memphis Center
06:16PM 33.6498 -89.1494 110° East  Level FlightAware Approximate
06:16PM 33.6522 -89.0192 110° East 391 450 26,500  Level Memphis Center
06:17PM 33.6136 -88.8986 111° Southeast 391 450 25,800 -919 Descending Memphis Center
06:18PM 33.5733 -88.7822 113° Southeast 396 456 24,800 -1,161 Descending Memphis Center
06:18PM 33.5661 -88.7556 108° East 391 450 24,600 -1,000 Descending Memphis Center
06:19PM 33.5339 -88.6625 113° Southeast 393 452 23,800 -968 Descending Memphis Center
06:19PM 33.5239 -88.6325 112° Southeast 391 450 23,600 -985 Descending Memphis Center
06:20PM 33.4903 -88.5353 112° Southeast 385 443 22,700 -968 Descending Memphis Center
06:20PM 33.4878 -88.5119 97° East 391 450 22,600 -1,116 Descending Memphis Center
06:21PM 33.4903 -88.4431 87° East 382 440 21,900 -1,258 Descending Memphis Center
06:21PM 33.4967 -88.3894 82° East 375 432 21,300 -1,500 Descending Memphis Center
06:22PM 33.5069 -88.3111 81° East 371 427 20,400 -1,333 Descending Memphis Center
06:22PM 33.5131 -88.2689 80° East 373 429 19,900 -1,672 Descending Memphis Center
06:23PM 33.5214 -88.1939 82° East 364 419 18,700 -1,839 Descending Memphis Center
06:23PM 33.5264 -88.1525 82° East 364 419 18,000 -1,758 Descending Memphis Center
06:25PM 33.5553 -87.9081 82° East 343 395 14,100 -1,581 Descending Memphis Center
06:26PM 33.5681 -87.8017 82° East 334 384 13,100 -1,016 Descending Memphis Center
06:27PM 33.5808 -87.6950 82° East 331 381 12,000 -930 Descending Memphis Center
06:29PM 33.5981 -87.4592 85° East 325 374 10,200 -938 Descending Memphis Center
06:30PM 33.5803 -87.3675 103° East 301 346 9,000 -1,400 Descending Atlanta Center
06:31PM 33.5403 -87.2986 125° Southeast 242 278 7,400 -1,650 Descending Atlanta Center
06:32PM 33.5131 -87.2231 113° Southeast 251 289 5,700 -1,835 Descending Atlanta Center
06:33PM 33.5133 -87.1358 90° East 272 313 3,700 -1,409 Descending Atlanta Center
06:34PM 33.5092 -87.0483 93° East 263 303 3,000 -347 Descending Atlanta Center
06:35PM 33.5108 -86.9736 88° East 226 260 3,000 -192 Level Atlanta Center
06:36PM 33.5125 -86.9017 88° East 223 257 2,600 -414 Descending Atlanta Center
06:37PM 33.5139 -86.8492 88° East 178 205 2,200 -703 Descending Atlanta Center
06:38PM 33.5378 -86.8003 60° Northeast 157 181 1,300 -900 Descending Atlanta Center